sensor_id;sensor_type;location;lat;lon;timestamp;P1;durP1;ratioP1;P2;durP2;ratioP2
52354;SDS011;38286;51.156;17.038;2023-05-10T00:02:14;7.38;;;4.60;;
52354;SDS011;38286;51.156;17.038;2023-05-10T00:04:39;9.23;;;4.60;;
52354;SDS011;38286;51.156;17.038;2023-05-10T00:07:06;4.78;;;4.13;;
52354;SDS011;38286;51.156;17.038;2023-05-10T00:09:32;8.32;;;4.90;;
52354;SDS011;38286;51.156;17.038;2023-05-10T00:11:58;7.32;;;4.47;;
52354;SDS011;38286;51.156;17.038;2023-05-10T00:14:24;7.22;;;4.88;;
52354;SDS011;38286;51.156;17.038;2023-05-10T00:16:50;6.55;;;4.80;;
52354;SDS011;38286;51.156;17.038;2023-05-10T00:19:16;7.28;;;4.40;;
52354;SDS011;38286;51.156;17.038;2023-05-10T00:21:42;6.78;;;4.70;;
52354;SDS011;38286;51.156;17.038;2023-05-10T00:24:08;6.35;;;4.90;;
52354;SDS011;38286;51.156;17.038;2023-05-10T00:26:34;8.07;;;4.95;;
52354;SDS011;38286;51.156;17.038;2023-05-10T00:29:00;9.07;;;5.05;;
52354;SDS011;38286;51.156;17.038;2023-05-10T00:31:26;7.90;;;4.90;;
52354;SDS011;38286;51.156;17.038;2023-05-10T00:33:52;6.68;;;4.65;;
52354;SDS011;38286;51.156;17.038;2023-05-10T00:36:18;7.65;;;5.15;;
52354;SDS011;38286;51.156;17.038;2023-05-10T00:38:44;7.38;;;4.47;;
52354;SDS011;38286;51.156;17.038;2023-05-10T00:41:10;8.07;;;5.18;;
52354;SDS011;38286;51.156;17.038;2023-05-10T00:43:36;8.15;;;5.07;;
52354;SDS011;38286;51.156;17.038;2023-05-10T00:46:02;10.20;;;5.40;;
52354;SDS011;38286;51.156;17.038;2023-05-10T00:48:29;9.05;;;5.20;;
52354;SDS011;38286;51.156;17.038;2023-05-10T00:50:55;7.82;;;4.57;;
52354;SDS011;38286;51.156;17.038;2023-05-10T00:53:21;7.22;;;4.78;;
52354;SDS011;38286;51.156;17.038;2023-05-10T00:55:47;10.13;;;5.57;;
52354;SDS011;38286;51.156;17.038;2023-05-10T00:58:13;7.63;;;4.60;;
52354;SDS011;38286;51.156;17.038;2023-05-10T01:00:41;8.15;;;4.85;;
52354;SDS011;38286;51.156;17.038;2023-05-10T01:03:07;8.27;;;5.28;;
52354;SDS011;38286;51.156;17.038;2023-05-10T01:05:33;8.93;;;5.10;;
52354;SDS011;38286;51.156;17.038;2023-05-10T01:07:59;10.55;;;5.32;;
52354;SDS011;38286;51.156;17.038;2023-05-10T01:10:25;10.63;;;5.60;;
52354;SDS011;38286;51.156;17.038;2023-05-10T01:12:51;9.48;;;5.40;;
52354;SDS011;38286;51.156;17.038;2023-05-10T01:15:17;9.27;;;5.30;;
52354;SDS011;38286;51.156;17.038;2023-05-10T01:17:44;9.90;;;5.90;;
52354;SDS011;38286;51.156;17.038;2023-05-10T01:20:12;11.63;;;5.20;;
52354;SDS011;38286;51.156;17.038;2023-05-10T01:25:30;9.77;;;5.32;;
52354;SDS011;38286;51.156;17.038;2023-05-10T01:29:33;9.57;;;5.43;;
52354;SDS011;38286;51.156;17.038;2023-05-10T01:34:48;8.52;;;5.18;;
52354;SDS011;38286;51.156;17.038;2023-05-10T01:37:21;9.65;;;5.65;;
52354;SDS011;38286;51.156;17.038;2023-05-10T01:42:29;10.60;;;5.97;;
52354;SDS011;38286;51.156;17.038;2023-05-10T01:45:15;8.38;;;5.15;;
52354;SDS011;38286;51.156;17.038;2023-05-10T01:50:35;8.77;;;5.57;;
52354;SDS011;38286;51.156;17.038;2023-05-10T01:53:02;9.18;;;5.50;;
52354;SDS011;38286;51.156;17.038;2023-05-10T01:55:33;10.48;;;6.20;;
52354;SDS011;38286;51.156;17.038;2023-05-10T01:58:03;8.07;;;5.15;;
52354;SDS011;38286;51.156;17.038;2023-05-10T02:00:32;9.10;;;5.88;;
52354;SDS011;38286;51.156;17.038;2023-05-10T02:02:59;10.43;;;5.80;;
52354;SDS011;38286;51.156;17.038;2023-05-10T02:05:26;11.48;;;5.55;;
52354;SDS011;38286;51.156;17.038;2023-05-10T02:07:53;12.88;;;5.70;;
52354;SDS011;38286;51.156;17.038;2023-05-10T02:10:19;9.90;;;6.15;;
52354;SDS011;38286;51.156;17.038;2023-05-10T02:12:47;13.02;;;6.47;;
52354;SDS011;38286;51.156;17.038;2023-05-10T02:15:15;7.65;;;5.95;;
52354;SDS011;38286;51.156;17.038;2023-05-10T02:17:47;10.60;;;5.75;;
52354;SDS011;38286;51.156;17.038;2023-05-10T02:20:14;10.07;;;6.50;;
52354;SDS011;38286;51.156;17.038;2023-05-10T02:22:41;12.20;;;6.40;;
52354;SDS011;38286;51.156;17.038;2023-05-10T02:25:08;10.77;;;6.40;;
52354;SDS011;38286;51.156;17.038;2023-05-10T02:27:35;9.48;;;6.05;;
52354;SDS011;38286;51.156;17.038;2023-05-10T02:30:02;9.20;;;6.00;;
52354;SDS011;38286;51.156;17.038;2023-05-10T02:32:47;13.70;;;6.43;;
52354;SDS011;38286;51.156;17.038;2023-05-10T02:35:14;10.70;;;6.43;;
52354;SDS011;38286;51.156;17.038;2023-05-10T02:37:41;7.32;;;5.65;;
52354;SDS011;38286;51.156;17.038;2023-05-10T02:40:07;13.00;;;6.15;;
52354;SDS011;38286;51.156;17.038;2023-05-10T02:42:35;11.75;;;6.70;;
52354;SDS011;38286;51.156;17.038;2023-05-10T02:45:05;11.05;;;6.05;;
52354;SDS011;38286;51.156;17.038;2023-05-10T02:47:33;8.65;;;5.78;;
52354;SDS011;38286;51.156;17.038;2023-05-10T02:49:59;11.90;;;5.20;;
52354;SDS011;38286;51.156;17.038;2023-05-10T02:52:27;13.13;;;6.05;;
52354;SDS011;38286;51.156;17.038;2023-05-10T02:54:55;9.35;;;6.60;;
52354;SDS011;38286;51.156;17.038;2023-05-10T02:57:28;12.73;;;6.18;;
52354;SDS011;38286;51.156;17.038;2023-05-10T02:59:55;9.45;;;5.97;;
52354;SDS011;38286;51.156;17.038;2023-05-10T03:02:21;13.48;;;6.00;;
52354;SDS011;38286;51.156;17.038;2023-05-10T03:04:47;9.93;;;6.22;;
52354;SDS011;38286;51.156;17.038;2023-05-10T03:07:13;10.93;;;5.93;;
52354;SDS011;38286;51.156;17.038;2023-05-10T03:09:39;11.55;;;6.20;;
52354;SDS011;38286;51.156;17.038;2023-05-10T03:12:14;8.55;;;6.28;;
52354;SDS011;38286;51.156;17.038;2023-05-10T03:18:04;9.50;;;5.28;;
52354;SDS011;38286;51.156;17.038;2023-05-10T03:20:38;11.38;;;5.57;;
52354;SDS011;38286;51.156;17.038;2023-05-10T03:26:05;10.27;;;6.18;;
52354;SDS011;38286;51.156;17.038;2023-05-10T03:28:33;11.80;;;6.22;;
52354;SDS011;38286;51.156;17.038;2023-05-10T03:31:00;12.10;;;6.35;;
52354;SDS011;38286;51.156;17.038;2023-05-10T03:33:27;11.75;;;6.22;;
52354;SDS011;38286;51.156;17.038;2023-05-10T03:35:53;11.75;;;6.57;;
52354;SDS011;38286;51.156;17.038;2023-05-10T03:38:19;12.40;;;6.43;;
52354;SDS011;38286;51.156;17.038;2023-05-10T03:40:45;11.32;;;6.85;;
52354;SDS011;38286;51.156;17.038;2023-05-10T03:43:11;11.88;;;6.00;;
52354;SDS011;38286;51.156;17.038;2023-05-10T03:45:37;12.00;;;6.25;;
52354;SDS011;38286;51.156;17.038;2023-05-10T03:48:03;10.15;;;5.95;;
52354;SDS011;38286;51.156;17.038;2023-05-10T03:50:29;15.30;;;6.68;;
52354;SDS011;38286;51.156;17.038;2023-05-10T03:52:55;11.38;;;6.20;;
52354;SDS011;38286;51.156;17.038;2023-05-10T03:55:22;11.85;;;6.65;;
52354;SDS011;38286;51.156;17.038;2023-05-10T03:57:49;9.88;;;6.13;;
52354;SDS011;38286;51.156;17.038;2023-05-10T04:00:14;11.73;;;5.63;;
52354;SDS011;38286;51.156;17.038;2023-05-10T04:02:41;9.90;;;6.10;;
52354;SDS011;38286;51.156;17.038;2023-05-10T04:05:07;10.90;;;5.70;;
52354;SDS011;38286;51.156;17.038;2023-05-10T04:07:33;11.43;;;6.05;;
52354;SDS011;38286;51.156;17.038;2023-05-10T04:09:59;10.00;;;5.90;;
52354;SDS011;38286;51.156;17.038;2023-05-10T04:12:25;11.85;;;6.30;;
52354;SDS011;38286;51.156;17.038;2023-05-10T04:14:51;12.07;;;5.90;;
52354;SDS011;38286;51.156;17.038;2023-05-10T04:17:17;11.85;;;6.00;;
52354;SDS011;38286;51.156;17.038;2023-05-10T04:19:43;10.23;;;5.85;;
52354;SDS011;38286;51.156;17.038;2023-05-10T04:22:09;10.13;;;5.75;;
52354;SDS011;38286;51.156;17.038;2023-05-10T04:24:36;11.75;;;5.60;;
52354;SDS011;38286;51.156;17.038;2023-05-10T04:27:02;15.10;;;6.40;;
52354;SDS011;38286;51.156;17.038;2023-05-10T04:29:28;14.73;;;6.25;;
52354;SDS011;38286;51.156;17.038;2023-05-10T04:31:54;13.40;;;6.00;;
52354;SDS011;38286;51.156;17.038;2023-05-10T04:34:20;11.02;;;5.85;;
52354;SDS011;38286;51.156;17.038;2023-05-10T04:36:46;9.65;;;5.68;;
52354;SDS011;38286;51.156;17.038;2023-05-10T04:39:12;13.30;;;6.43;;
52354;SDS011;38286;51.156;17.038;2023-05-10T04:41:39;10.05;;;6.20;;
52354;SDS011;38286;51.156;17.038;2023-05-10T04:44:05;10.00;;;6.18;;
52354;SDS011;38286;51.156;17.038;2023-05-10T04:46:31;10.68;;;5.95;;
52354;SDS011;38286;51.156;17.038;2023-05-10T04:48:57;9.18;;;5.88;;
52354;SDS011;38286;51.156;17.038;2023-05-10T04:51:24;9.15;;;5.85;;
52354;SDS011;38286;51.156;17.038;2023-05-10T04:53:49;12.55;;;5.72;;
52354;SDS011;38286;51.156;17.038;2023-05-10T04:56:16;11.82;;;6.32;;
52354;SDS011;38286;51.156;17.038;2023-05-10T04:58:42;10.88;;;5.40;;
52354;SDS011;38286;51.156;17.038;2023-05-10T05:01:08;9.93;;;5.82;;
52354;SDS011;38286;51.156;17.038;2023-05-10T05:03:36;12.52;;;5.90;;
52354;SDS011;38286;51.156;17.038;2023-05-10T05:06:02;10.02;;;5.55;;
52354;SDS011;38286;51.156;17.038;2023-05-10T05:08:28;11.48;;;5.53;;
52354;SDS011;38286;51.156;17.038;2023-05-10T05:10:54;7.53;;;4.65;;
52354;SDS011;38286;51.156;17.038;2023-05-10T05:13:20;10.60;;;5.20;;
52354;SDS011;38286;51.156;17.038;2023-05-10T05:15:47;10.98;;;5.40;;
52354;SDS011;38286;51.156;17.038;2023-05-10T05:18:12;12.93;;;4.82;;
52354;SDS011;38286;51.156;17.038;2023-05-10T05:20:39;10.95;;;5.00;;
52354;SDS011;38286;51.156;17.038;2023-05-10T05:23:05;8.82;;;5.25;;
52354;SDS011;38286;51.156;17.038;2023-05-10T05:25:31;9.02;;;5.07;;
52354;SDS011;38286;51.156;17.038;2023-05-10T05:27:57;9.57;;;5.15;;
52354;SDS011;38286;51.156;17.038;2023-05-10T05:30:23;7.25;;;4.68;;
52354;SDS011;38286;51.156;17.038;2023-05-10T05:32:49;12.93;;;5.63;;
52354;SDS011;38286;51.156;17.038;2023-05-10T05:35:15;10.02;;;5.10;;
52354;SDS011;38286;51.156;17.038;2023-05-10T05:37:41;9.75;;;5.32;;
52354;SDS011;38286;51.156;17.038;2023-05-10T05:40:07;10.75;;;4.80;;
52354;SDS011;38286;51.156;17.038;2023-05-10T05:42:33;8.10;;;4.55;;
52354;SDS011;38286;51.156;17.038;2023-05-10T05:44:59;9.30;;;4.30;;
52354;SDS011;38286;51.156;17.038;2023-05-10T05:47:25;7.90;;;4.90;;
52354;SDS011;38286;51.156;17.038;2023-05-10T05:49:51;8.07;;;4.57;;
52354;SDS011;38286;51.156;17.038;2023-05-10T05:52:18;10.18;;;4.78;;
52354;SDS011;38286;51.156;17.038;2023-05-10T05:54:43;10.95;;;4.70;;
52354;SDS011;38286;51.156;17.038;2023-05-10T05:57:10;9.70;;;4.68;;
52354;SDS011;38286;51.156;17.038;2023-05-10T05:59:35;11.32;;;4.70;;
52354;SDS011;38286;51.156;17.038;2023-05-10T06:02:02;13.77;;;5.55;;
52354;SDS011;38286;51.156;17.038;2023-05-10T06:04:27;10.05;;;5.25;;
52354;SDS011;38286;51.156;17.038;2023-05-10T06:06:54;9.25;;;4.72;;
52354;SDS011;38286;51.156;17.038;2023-05-10T06:09:19;10.07;;;4.85;;
52354;SDS011;38286;51.156;17.038;2023-05-10T06:11:46;10.98;;;4.72;;
52354;SDS011;38286;51.156;17.038;2023-05-10T06:14:12;10.65;;;4.82;;
52354;SDS011;38286;51.156;17.038;2023-05-10T06:16:38;8.15;;;4.45;;
52354;SDS011;38286;51.156;17.038;2023-05-10T06:19:04;8.85;;;5.13;;
52354;SDS011;38286;51.156;17.038;2023-05-10T06:21:30;11.95;;;4.45;;
52354;SDS011;38286;51.156;17.038;2023-05-10T06:23:56;7.18;;;4.40;;
52354;SDS011;38286;51.156;17.038;2023-05-10T06:26:22;6.95;;;4.30;;
52354;SDS011;38286;51.156;17.038;2023-05-10T06:28:48;7.93;;;3.83;;
52354;SDS011;38286;51.156;17.038;2023-05-10T06:31:14;8.35;;;4.15;;
52354;SDS011;38286;51.156;17.038;2023-05-10T06:33:41;7.00;;;3.80;;
52354;SDS011;38286;51.156;17.038;2023-05-10T06:36:07;9.45;;;4.38;;
52354;SDS011;38286;51.156;17.038;2023-05-10T06:38:33;8.90;;;3.90;;
52354;SDS011;38286;51.156;17.038;2023-05-10T06:40:59;6.97;;;3.78;;
52354;SDS011;38286;51.156;17.038;2023-05-10T06:43:25;7.47;;;3.80;;
52354;SDS011;38286;51.156;17.038;2023-05-10T06:45:54;7.32;;;3.80;;
52354;SDS011;38286;51.156;17.038;2023-05-10T06:48:19;9.52;;;4.28;;
52354;SDS011;38286;51.156;17.038;2023-05-10T06:50:46;7.75;;;3.72;;
52354;SDS011;38286;51.156;17.038;2023-05-10T06:53:11;6.78;;;3.67;;
52354;SDS011;38286;51.156;17.038;2023-05-10T06:55:39;7.47;;;4.03;;
52354;SDS011;38286;51.156;17.038;2023-05-10T06:58:04;11.60;;;3.90;;
52354;SDS011;38286;51.156;17.038;2023-05-10T07:00:31;6.07;;;3.88;;
52354;SDS011;38286;51.156;17.038;2023-05-10T07:02:57;8.30;;;4.45;;
52354;SDS011;38286;51.156;17.038;2023-05-10T07:05:24;13.20;;;3.90;;
52354;SDS011;38286;51.156;17.038;2023-05-10T07:07:50;8.30;;;3.50;;
52354;SDS011;38286;51.156;17.038;2023-05-10T07:10:17;7.53;;;3.40;;
52354;SDS011;38286;51.156;17.038;2023-05-10T07:12:43;6.88;;;3.63;;
52354;SDS011;38286;51.156;17.038;2023-05-10T07:15:09;5.40;;;3.60;;
52354;SDS011;38286;51.156;17.038;2023-05-10T08:49:39;7.43;;;3.17;;
52354;SDS011;38286;51.156;17.038;2023-05-10T08:52:06;12.38;;;3.85;;
52354;SDS011;38286;51.156;17.038;2023-05-10T08:54:32;7.65;;;3.10;;
52354;SDS011;38286;51.156;17.038;2023-05-10T08:56:59;5.15;;;2.92;;
52354;SDS011;38286;51.156;17.038;2023-05-10T08:59:25;7.35;;;2.92;;
52354;SDS011;38286;51.156;17.038;2023-05-10T09:01:51;4.72;;;2.88;;
52354;SDS011;38286;51.156;17.038;2023-05-10T09:04:19;4.75;;;2.60;;
52354;SDS011;38286;51.156;17.038;2023-05-10T09:06:45;5.35;;;2.33;;
52354;SDS011;38286;51.156;17.038;2023-05-10T09:09:11;5.03;;;2.50;;
52354;SDS011;38286;51.156;17.038;2023-05-10T09:11:37;4.15;;;2.65;;
52354;SDS011;38286;51.156;17.038;2023-05-10T09:14:03;8.40;;;2.60;;
52354;SDS011;38286;51.156;17.038;2023-05-10T09:16:30;10.05;;;3.03;;
52354;SDS011;38286;51.156;17.038;2023-05-10T09:18:55;5.50;;;2.83;;
52354;SDS011;38286;51.156;17.038;2023-05-10T09:21:22;8.77;;;2.30;;
52354;SDS011;38286;51.156;17.038;2023-05-10T09:23:47;3.92;;;2.47;;
52354;SDS011;38286;51.156;17.038;2023-05-10T09:26:15;8.65;;;2.75;;
52354;SDS011;38286;51.156;17.038;2023-05-10T09:28:54;7.90;;;2.90;;
52354;SDS011;38286;51.156;17.038;2023-05-10T09:31:21;4.00;;;2.67;;
52354;SDS011;38286;51.156;17.038;2023-05-10T09:33:49;8.68;;;3.13;;
52354;SDS011;38286;51.156;17.038;2023-05-10T09:36:16;3.10;;;2.30;;
52354;SDS011;38286;51.156;17.038;2023-05-10T09:38:46;3.20;;;2.42;;
52354;SDS011;38286;51.156;17.038;2023-05-10T09:41:20;4.15;;;2.75;;
52354;SDS011;38286;51.156;17.038;2023-05-10T09:43:46;7.60;;;2.72;;
52354;SDS011;38286;51.156;17.038;2023-05-10T09:46:13;5.22;;;2.42;;
52354;SDS011;38286;51.156;17.038;2023-05-10T09:48:45;5.10;;;2.30;;
52354;SDS011;38286;51.156;17.038;2023-05-10T09:51:19;2.80;;;2.22;;
52354;SDS011;38286;51.156;17.038;2023-05-10T09:53:45;3.37;;;2.30;;
52354;SDS011;38286;51.156;17.038;2023-05-10T09:56:12;5.38;;;2.67;;
52354;SDS011;38286;51.156;17.038;2023-05-10T09:58:39;5.05;;;2.30;;
52354;SDS011;38286;51.156;17.038;2023-05-10T10:01:05;24.92;;;3.58;;
52354;SDS011;38286;51.156;17.038;2023-05-10T10:03:41;5.53;;;2.30;;
52354;SDS011;38286;51.156;17.038;2023-05-10T10:06:08;4.78;;;2.40;;
52354;SDS011;38286;51.156;17.038;2023-05-10T10:08:34;3.72;;;2.25;;
52354;SDS011;38286;51.156;17.038;2023-05-10T10:11:00;5.93;;;2.50;;
52354;SDS011;38286;51.156;17.038;2023-05-10T10:13:26;4.40;;;2.58;;
52354;SDS011;38286;51.156;17.038;2023-05-10T10:15:53;3.30;;;2.28;;
52354;SDS011;38286;51.156;17.038;2023-05-10T10:18:20;8.18;;;2.30;;
52354;SDS011;38286;51.156;17.038;2023-05-10T10:20:52;2.58;;;2.33;;
52354;SDS011;38286;51.156;17.038;2023-05-10T10:23:19;10.68;;;2.63;;
52354;SDS011;38286;51.156;17.038;2023-05-10T10:25:45;4.70;;;2.30;;
52354;SDS011;38286;51.156;17.038;2023-05-10T10:28:16;3.83;;;2.67;;
52354;SDS011;38286;51.156;17.038;2023-05-10T10:31:13;3.67;;;2.10;;
52354;SDS011;38286;51.156;17.038;2023-05-10T10:33:58;2.75;;;1.90;;
52354;SDS011;38286;51.156;17.038;2023-05-10T10:36:26;5.35;;;2.45;;
52354;SDS011;38286;51.156;17.038;2023-05-10T10:38:56;4.50;;;2.00;;
52354;SDS011;38286;51.156;17.038;2023-05-10T10:41:30;6.05;;;2.13;;
52354;SDS011;38286;51.156;17.038;2023-05-10T10:44:42;3.00;;;1.85;;
52354;SDS011;38286;51.156;17.038;2023-05-10T10:52:15;3.00;;;1.90;;
52354;SDS011;38286;51.156;17.038;2023-05-10T10:57:42;4.90;;;2.03;;
52354;SDS011;38286;51.156;17.038;2023-05-10T11:00:20;7.13;;;2.17;;
52354;SDS011;38286;51.156;17.038;2023-05-10T11:02:47;6.03;;;2.35;;
52354;SDS011;38286;51.156;17.038;2023-05-10T11:05:24;4.50;;;2.03;;
52354;SDS011;38286;51.156;17.038;2023-05-10T11:08:06;2.38;;;1.92;;
52354;SDS011;38286;51.156;17.038;2023-05-10T11:10:33;9.70;;;2.17;;
52354;SDS011;38286;51.156;17.038;2023-05-10T11:13:00;8.75;;;2.63;;
52354;SDS011;38286;51.156;17.038;2023-05-10T11:17:57;10.07;;;2.35;;
52354;SDS011;38286;51.156;17.038;2023-05-10T11:20:23;4.90;;;2.30;;
52354;SDS011;38286;51.156;17.038;2023-05-10T11:23:10;4.43;;;2.20;;
52354;SDS011;38286;51.156;17.038;2023-05-10T11:25:44;10.40;;;2.50;;
52354;SDS011;38286;51.156;17.038;2023-05-10T11:28:11;8.27;;;2.15;;
52354;SDS011;38286;51.156;17.038;2023-05-10T11:30:38;5.72;;;2.38;;
52354;SDS011;38286;51.156;17.038;2023-05-10T11:33:06;3.13;;;2.30;;
52354;SDS011;38286;51.156;17.038;2023-05-10T11:35:39;6.00;;;2.45;;
52354;SDS011;38286;51.156;17.038;2023-05-10T11:38:06;8.45;;;2.72;;
52354;SDS011;38286;51.156;17.038;2023-05-10T11:40:36;10.40;;;2.65;;
52354;SDS011;38286;51.156;17.038;2023-05-10T11:43:02;3.45;;;1.85;;
52354;SDS011;38286;51.156;17.038;2023-05-10T11:45:29;7.00;;;1.90;;
52354;SDS011;38286;51.156;17.038;2023-05-10T11:47:58;10.73;;;2.45;;
52354;SDS011;38286;51.156;17.038;2023-05-10T11:50:25;10.52;;;2.22;;
52354;SDS011;38286;51.156;17.038;2023-05-10T11:52:52;5.25;;;1.85;;
52354;SDS011;38286;51.156;17.038;2023-05-10T11:55:18;9.20;;;2.25;;
52354;SDS011;38286;51.156;17.038;2023-05-10T11:57:45;4.35;;;2.17;;
52354;SDS011;38286;51.156;17.038;2023-05-10T12:00:12;12.45;;;2.03;;
52354;SDS011;38286;51.156;17.038;2023-05-10T12:02:39;7.82;;;2.30;;
52354;SDS011;38286;51.156;17.038;2023-05-10T12:05:05;19.45;;;2.67;;
52354;SDS011;38286;51.156;17.038;2023-05-10T12:07:32;4.22;;;1.85;;
52354;SDS011;38286;51.156;17.038;2023-05-10T12:10:08;5.03;;;2.30;;
52354;SDS011;38286;51.156;17.038;2023-05-10T12:12:39;3.80;;;2.15;;
52354;SDS011;38286;51.156;17.038;2023-05-10T12:15:10;3.28;;;1.83;;
52354;SDS011;38286;51.156;17.038;2023-05-10T12:17:39;3.53;;;1.75;;
52354;SDS011;38286;51.156;17.038;2023-05-10T12:20:20;3.08;;;1.55;;
52354;SDS011;38286;51.156;17.038;2023-05-10T12:22:51;4.05;;;1.70;;
52354;SDS011;38286;51.156;17.038;2023-05-10T12:25:22;7.13;;;2.08;;
52354;SDS011;38286;51.156;17.038;2023-05-10T12:27:53;4.55;;;1.88;;
52354;SDS011;38286;51.156;17.038;2023-05-10T12:30:24;2.55;;;1.55;;
52354;SDS011;38286;51.156;17.038;2023-05-10T12:32:51;3.05;;;1.80;;
52354;SDS011;38286;51.156;17.038;2023-05-10T12:35:18;6.18;;;2.10;;
52354;SDS011;38286;51.156;17.038;2023-05-10T12:37:52;8.15;;;2.20;;
52354;SDS011;38286;51.156;17.038;2023-05-10T12:40:18;5.15;;;2.00;;
52354;SDS011;38286;51.156;17.038;2023-05-10T12:42:44;5.40;;;1.90;;
52354;SDS011;38286;51.156;17.038;2023-05-10T12:45:10;3.08;;;1.58;;
52354;SDS011;38286;51.156;17.038;2023-05-10T12:47:37;3.30;;;1.70;;
52354;SDS011;38286;51.156;17.038;2023-05-10T12:50:03;6.00;;;1.85;;
52354;SDS011;38286;51.156;17.038;2023-05-10T12:52:30;5.20;;;1.85;;
52354;SDS011;38286;51.156;17.038;2023-05-10T12:54:57;3.60;;;2.00;;
52354;SDS011;38286;51.156;17.038;2023-05-10T12:57:24;1.92;;;1.63;;
52354;SDS011;38286;51.156;17.038;2023-05-10T12:59:50;5.95;;;2.00;;
52354;SDS011;38286;51.156;17.038;2023-05-10T13:02:16;6.13;;;1.90;;
52354;SDS011;38286;51.156;17.038;2023-05-10T13:04:46;1.95;;;1.75;;
52354;SDS011;38286;51.156;17.038;2023-05-10T13:07:13;10.73;;;2.38;;
52354;SDS011;38286;51.156;17.038;2023-05-10T13:09:39;2.35;;;1.70;;
52354;SDS011;38286;51.156;17.038;2023-05-10T13:12:05;4.82;;;1.80;;
52354;SDS011;38286;51.156;17.038;2023-05-10T13:14:31;5.18;;;1.73;;
52354;SDS011;38286;51.156;17.038;2023-05-10T13:16:58;36.05;;;3.67;;
52354;SDS011;38286;51.156;17.038;2023-05-10T13:19:24;6.55;;;2.03;;
52354;SDS011;38286;51.156;17.038;2023-05-10T13:21:51;5.22;;;2.00;;
52354;SDS011;38286;51.156;17.038;2023-05-10T13:24:17;3.67;;;1.75;;
52354;SDS011;38286;51.156;17.038;2023-05-10T13:26:43;1.75;;;1.65;;
52354;SDS011;38286;51.156;17.038;2023-05-10T13:29:09;3.05;;;1.70;;
52354;SDS011;38286;51.156;17.038;2023-05-10T13:31:36;3.42;;;1.63;;
52354;SDS011;38286;51.156;17.038;2023-05-10T13:34:02;3.60;;;1.88;;
52354;SDS011;38286;51.156;17.038;2023-05-10T13:36:29;8.32;;;1.95;;
52354;SDS011;38286;51.156;17.038;2023-05-10T13:38:55;4.03;;;1.67;;
52354;SDS011;38286;51.156;17.038;2023-05-10T13:41:21;4.80;;;1.88;;
52354;SDS011;38286;51.156;17.038;2023-05-10T13:43:47;1.60;;;1.50;;
52354;SDS011;38286;51.156;17.038;2023-05-10T13:46:14;7.63;;;1.50;;
52354;SDS011;38286;51.156;17.038;2023-05-10T13:48:40;3.65;;;2.00;;
52354;SDS011;38286;51.156;17.038;2023-05-10T13:51:07;4.68;;;1.40;;
52354;SDS011;38286;51.156;17.038;2023-05-10T13:53:32;1.73;;;1.63;;
52354;SDS011;38286;51.156;17.038;2023-05-10T13:55:59;5.30;;;1.92;;
52354;SDS011;38286;51.156;17.038;2023-05-10T13:58:25;3.78;;;1.70;;
52354;SDS011;38286;51.156;17.038;2023-05-10T14:00:51;5.68;;;1.55;;
52354;SDS011;38286;51.156;17.038;2023-05-10T14:03:17;5.53;;;1.30;;
52354;SDS011;38286;51.156;17.038;2023-05-10T14:05:43;5.80;;;1.60;;
52354;SDS011;38286;51.156;17.038;2023-05-10T14:08:10;2.78;;;1.45;;
52354;SDS011;38286;51.156;17.038;2023-05-10T14:10:38;2.58;;;1.52;;
52354;SDS011;38286;51.156;17.038;2023-05-10T14:13:04;3.08;;;1.50;;
52354;SDS011;38286;51.156;17.038;2023-05-10T14:15:31;4.18;;;1.77;;
52354;SDS011;38286;51.156;17.038;2023-05-10T14:17:57;5.22;;;1.70;;
52354;SDS011;38286;51.156;17.038;2023-05-10T14:20:24;2.03;;;1.20;;
52354;SDS011;38286;51.156;17.038;2023-05-10T14:22:50;3.05;;;1.48;;
52354;SDS011;38286;51.156;17.038;2023-05-10T14:25:16;2.25;;;1.40;;
52354;SDS011;38286;51.156;17.038;2023-05-10T14:27:42;3.17;;;1.58;;
52354;SDS011;38286;51.156;17.038;2023-05-10T14:30:08;2.35;;;1.48;;
52354;SDS011;38286;51.156;17.038;2023-05-10T14:32:34;3.65;;;1.40;;
52354;SDS011;38286;51.156;17.038;2023-05-10T14:35:02;4.75;;;1.50;;
52354;SDS011;38286;51.156;17.038;2023-05-10T14:37:28;2.90;;;1.50;;
52354;SDS011;38286;51.156;17.038;2023-05-10T14:39:55;1.35;;;1.30;;
52354;SDS011;38286;51.156;17.038;2023-05-10T14:42:21;2.92;;;1.40;;
52354;SDS011;38286;51.156;17.038;2023-05-10T14:44:47;2.85;;;1.30;;
52354;SDS011;38286;51.156;17.038;2023-05-10T14:47:13;2.47;;;1.48;;
52354;SDS011;38286;51.156;17.038;2023-05-10T14:49:40;3.38;;;1.38;;
52354;SDS011;38286;51.156;17.038;2023-05-10T14:52:06;4.05;;;1.60;;
52354;SDS011;38286;51.156;17.038;2023-05-10T14:54:32;3.25;;;1.10;;
52354;SDS011;38286;51.156;17.038;2023-05-10T14:56:59;3.78;;;1.33;;
52354;SDS011;38286;51.156;17.038;2023-05-10T14:59:26;1.85;;;1.40;;
52354;SDS011;38286;51.156;17.038;2023-05-10T15:01:52;4.00;;;1.85;;
52354;SDS011;38286;51.156;17.038;2023-05-10T15:04:18;3.55;;;1.75;;
52354;SDS011;38286;51.156;17.038;2023-05-10T15:06:44;1.40;;;1.30;;
52354;SDS011;38286;51.156;17.038;2023-05-10T15:09:10;1.98;;;1.25;;
52354;SDS011;38286;51.156;17.038;2023-05-10T15:11:36;1.95;;;1.38;;
52354;SDS011;38286;51.156;17.038;2023-05-10T15:14:03;2.50;;;1.38;;
52354;SDS011;38286;51.156;17.038;2023-05-10T15:16:29;2.92;;;1.65;;
52354;SDS011;38286;51.156;17.038;2023-05-10T15:18:55;1.88;;;1.40;;
52354;SDS011;38286;51.156;17.038;2023-05-10T15:21:21;1.60;;;1.40;;
52354;SDS011;38286;51.156;17.038;2023-05-10T15:23:47;3.00;;;1.50;;
52354;SDS011;38286;51.156;17.038;2023-05-10T15:26:13;1.92;;;1.30;;
52354;SDS011;38286;51.156;17.038;2023-05-10T15:28:39;2.50;;;1.10;;
52354;SDS011;38286;51.156;17.038;2023-05-10T15:31:05;1.48;;;1.38;;
52354;SDS011;38286;51.156;17.038;2023-05-10T15:33:31;1.30;;;1.20;;
52354;SDS011;38286;51.156;17.038;2023-05-10T15:35:58;3.58;;;1.40;;
52354;SDS011;38286;51.156;17.038;2023-05-10T15:38:24;3.70;;;1.25;;
52354;SDS011;38286;51.156;17.038;2023-05-10T15:40:50;3.35;;;1.40;;
52354;SDS011;38286;51.156;17.038;2023-05-10T15:43:16;2.58;;;1.20;;
52354;SDS011;38286;51.156;17.038;2023-05-10T15:45:42;1.50;;;1.10;;
52354;SDS011;38286;51.156;17.038;2023-05-10T15:48:08;2.22;;;1.33;;
52354;SDS011;38286;51.156;17.038;2023-05-10T15:50:35;3.45;;;1.63;;
52354;SDS011;38286;51.156;17.038;2023-05-10T15:53:01;4.53;;;1.58;;
52354;SDS011;38286;51.156;17.038;2023-05-10T15:55:27;2.00;;;1.35;;
52354;SDS011;38286;51.156;17.038;2023-05-10T15:57:53;2.15;;;1.50;;
52354;SDS011;38286;51.156;17.038;2023-05-10T16:00:19;2.05;;;1.40;;
52354;SDS011;38286;51.156;17.038;2023-05-10T16:02:46;3.00;;;1.83;;
52354;SDS011;38286;51.156;17.038;2023-05-10T16:05:12;3.15;;;1.40;;
52354;SDS011;38286;51.156;17.038;2023-05-10T16:07:38;2.58;;;1.60;;
52354;SDS011;38286;51.156;17.038;2023-05-10T16:10:07;1.40;;;1.30;;
52354;SDS011;38286;51.156;17.038;2023-05-10T16:12:34;1.67;;;1.30;;
52354;SDS011;38286;51.156;17.038;2023-05-10T16:15:00;4.60;;;1.50;;
52354;SDS011;38286;51.156;17.038;2023-05-10T16:17:26;4.70;;;2.33;;
52354;SDS011;38286;51.156;17.038;2023-05-10T16:19:53;4.47;;;1.58;;
52354;SDS011;38286;51.156;17.038;2023-05-10T16:22:19;1.83;;;1.42;;
52354;SDS011;38286;51.156;17.038;2023-05-10T16:24:46;3.22;;;1.65;;
52354;SDS011;38286;51.156;17.038;2023-05-10T16:27:13;3.17;;;1.50;;
52354;SDS011;38286;51.156;17.038;2023-05-10T16:29:39;4.75;;;1.80;;
52354;SDS011;38286;51.156;17.038;2023-05-10T16:32:05;4.55;;;1.50;;
52354;SDS011;38286;51.156;17.038;2023-05-10T16:34:31;1.60;;;1.50;;